sensor_id;sensor_type;location;lat;lon;timestamp;pressure;altitude;pressure_sealevel;temperature;humidity
22938;BME280;11634;42.734;23.298;2022-10-22T00:02:03;96134.53;;;7.24;100.00
22938;BME280;11634;42.734;23.298;2022-10-22T00:04:32;96106.06;;;7.24;100.00
22938;BME280;11634;42.734;23.298;2022-10-22T00:06:57;96115.84;;;7.19;100.00
22938;BME280;11634;42.734;23.298;2022-10-22T00:09:24;96104.41;;;7.23;100.00
22938;BME280;11634;42.734;23.298;2022-10-22T00:11:49;96120.84;;;7.22;100.00
22938;BME280;11634;42.734;23.298;2022-10-22T00:14:15;96129.63;;;7.19;100.00
22938;BME280;11634;42.734;23.298;2022-10-22T00:16:41;96120.13;;;7.20;100.00
22938;BME280;11634;42.734;23.298;2022-10-22T00:19:06;96128.31;;;7.12;100.00
22938;BME280;11634;42.734;23.298;2022-10-22T00:21:34;96129.91;;;7.15;100.00
22938;BME280;11634;42.734;23.298;2022-10-22T00:24:00;96121.13;;;7.04;100.00
22938;BME280;11634;42.734;23.298;2022-10-22T00:26:26;96121.56;;;7.10;100.00
22938;BME280;11634;42.734;23.298;2022-10-22T00:28:53;96109.13;;;7.03;100.00
22938;BME280;11634;42.734;23.298;2022-10-22T00:31:18;96103.19;;;7.01;100.00
22938;BME280;11634;42.734;23.298;2022-10-22T00:33:47;96092.28;;;6.96;100.00
22938;BME280;11634;42.734;23.298;2022-10-22T00:36:14;96107.34;;;7.03;100.00
22938;BME280;11634;42.734;23.298;2022-10-22T00:38:41;96108.44;;;6.99;100.00
22938;BME280;11634;42.734;23.298;2022-10-22T00:41:07;96065.78;;;6.78;100.00
22938;BME280;11634;42.734;23.298;2022-10-22T00:43:33;96088.13;;;6.79;100.00
22938;BME280;11634;42.734;23.298;2022-10-22T00:45:59;96117.31;;;6.95;100.00
22938;BME280;11634;42.734;23.298;2022-10-22T00:48:26;96064.09;;;6.77;100.00
22938;BME280;11634;42.734;23.298;2022-10-22T00:50:59;96074.63;;;6.74;100.00
22938;BME280;11634;42.734;23.298;2022-10-22T00:53:29;96119.28;;;7.06;100.00
22938;BME280;11634;42.734;23.298;2022-10-22T00:55:56;96092.28;;;6.96;100.00
22938;BME280;11634;42.734;23.298;2022-10-22T00:58:25;96089.25;;;6.89;100.00
22938;BME280;11634;42.734;23.298;2022-10-22T01:00:52;96064.00;;;6.79;100.00
22938;BME280;11634;42.734;23.298;2022-10-22T01:03:17;96073.63;;;6.77;100.00
22938;BME280;11634;42.734;23.298;2022-10-22T01:05:50;96047.00;;;6.61;100.00
22938;BME280;11634;42.734;23.298;2022-10-22T01:11:17;96078.22;;;6.86;100.00
22938;BME280;11634;42.734;23.298;2022-10-22T01:18:55;96066.69;;;6.91;100.00
22938;BME280;11634;42.734;23.298;2022-10-22T01:21:30;96042.41;;;6.80;100.00
22938;BME280;11634;42.734;23.298;2022-10-22T01:31:33;96040.38;;;6.85;100.00
22938;BME280;11634;42.734;23.298;2022-10-22T01:34:04;96012.94;;;6.68;100.00
22938;BME280;11634;42.734;23.298;2022-10-22T01:36:31;96024.09;;;6.83;100.00
22938;BME280;11634;42.734;23.298;2022-10-22T01:39:00;96033.25;;;6.88;100.00
22938;BME280;11634;42.734;23.298;2022-10-22T01:41:29;96042.00;;;6.86;100.00
22938;BME280;11634;42.734;23.298;2022-10-22T01:43:54;96050.25;;;6.78;100.00
22938;BME280;11634;42.734;23.298;2022-10-22T01:46:22;96044.50;;;6.73;100.00
22938;BME280;11634;42.734;23.298;2022-10-22T01:54:34;96047.19;;;6.58;100.00
22938;BME280;11634;42.734;23.298;2022-10-22T01:57:43;96027.81;;;6.51;100.00
22938;BME280;11634;42.734;23.298;2022-10-22T02:00:13;96027.72;;;6.53;100.00
22938;BME280;11634;42.734;23.298;2022-10-22T02:03:05;96021.25;;;6.46;100.00
22938;BME280;11634;42.734;23.298;2022-10-22T02:05:38;96040.97;;;6.47;100.00
22938;BME280;11634;42.734;23.298;2022-10-22T02:08:09;96004.31;;;6.26;100.00
22938;BME280;11634;42.734;23.298;2022-10-22T02:10:42;96026.56;;;6.43;100.00
22938;BME280;11634;42.734;23.298;2022-10-22T02:13:16;95998.97;;;6.29;100.00
22938;BME280;11634;42.734;23.298;2022-10-22T02:15:44;96021.16;;;6.47;100.00
22938;BME280;11634;42.734;23.298;2022-10-22T02:18:11;96023.44;;;6.52;100.00
22938;BME280;11634;42.734;23.298;2022-10-22T02:20:40;96025.56;;;6.45;100.00
22938;BME280;11634;42.734;23.298;2022-10-22T02:23:07;96029.00;;;6.59;100.00
22938;BME280;11634;42.734;23.298;2022-10-22T02:25:37;96046.34;;;6.57;100.00
22938;BME280;11634;42.734;23.298;2022-10-22T02:30:40;96020.94;;;6.36;100.00
22938;BME280;11634;42.734;23.298;2022-10-22T02:33:34;96041.34;;;6.54;100.00
22938;BME280;11634;42.734;23.298;2022-10-22T02:36:02;96031.22;;;6.52;100.00
22938;BME280;11634;42.734;23.298;2022-10-22T02:38:29;96006.97;;;6.25;100.00
22938;BME280;11634;42.734;23.298;2022-10-22T02:40:56;95988.59;;;6.01;100.00
22938;BME280;11634;42.734;23.298;2022-10-22T02:43:23;96019.69;;;6.14;100.00
22938;BME280;11634;42.734;23.298;2022-10-22T02:45:50;96065.63;;;6.38;100.00
22938;BME280;11634;42.734;23.298;2022-10-22T02:48:15;96065.28;;;6.44;100.00
22938;BME280;11634;42.734;23.298;2022-10-22T02:50:41;96061.22;;;6.40;100.00
22938;BME280;11634;42.734;23.298;2022-10-22T02:53:07;96059.84;;;6.49;100.00
22938;BME280;11634;42.734;23.298;2022-10-22T02:55:32;96053.56;;;6.39;100.00
22938;BME280;11634;42.734;23.298;2022-10-22T02:57:58;96015.94;;;6.19;100.00
22938;BME280;11634;42.734;23.298;2022-10-22T03:00:23;96030.34;;;6.23;100.00
22938;BME280;11634;42.734;23.298;2022-10-22T03:02:49;96054.94;;;6.44;100.00
22938;BME280;11634;42.734;23.298;2022-10-22T03:05:14;96012.53;;;6.19;100.00
22938;BME280;11634;42.734;23.298;2022-10-22T03:07:40;96061.31;;;6.39;100.00
22938;BME280;11634;42.734;23.298;2022-10-22T03:10:06;96011.22;;;6.12;100.00
22938;BME280;11634;42.734;23.298;2022-10-22T03:12:31;95983.56;;;5.85;100.00
22938;BME280;11634;42.734;23.298;2022-10-22T03:14:57;96045.66;;;6.26;100.00
22938;BME280;11634;42.734;23.298;2022-10-22T03:17:22;96018.22;;;6.10;100.00
22938;BME280;11634;42.734;23.298;2022-10-22T03:19:48;96053.25;;;6.29;100.00
22938;BME280;11634;42.734;23.298;2022-10-22T03:22:24;96044.47;;;6.32;100.00
22938;BME280;11634;42.734;23.298;2022-10-22T03:24:53;96044.22;;;6.36;100.00
22938;BME280;11634;42.734;23.298;2022-10-22T03:27:21;96045.59;;;6.42;100.00
22938;BME280;11634;42.734;23.298;2022-10-22T03:29:48;96028.03;;;6.19;100.00
22938;BME280;11634;42.734;23.298;2022-10-22T03:32:15;96046.50;;;6.27;100.00
22938;BME280;11634;42.734;23.298;2022-10-22T03:34:41;95956.50;;;5.76;100.00
22938;BME280;11634;42.734;23.298;2022-10-22T03:37:07;96045.50;;;6.29;100.00
22938;BME280;11634;42.734;23.298;2022-10-22T03:39:33;96030.59;;;6.19;100.00
22938;BME280;11634;42.734;23.298;2022-10-22T03:42:01;96055.47;;;6.35;100.00
22938;BME280;11634;42.734;23.298;2022-10-22T03:44:27;96049.09;;;6.41;100.00
22938;BME280;11634;42.734;23.298;2022-10-22T03:46:52;96037.25;;;6.09;100.00
22938;BME280;11634;42.734;23.298;2022-10-22T03:49:18;96048.41;;;6.23;100.00
22938;BME280;11634;42.734;23.298;2022-10-22T03:51:43;96042.25;;;6.26;100.00
22938;BME280;11634;42.734;23.298;2022-10-22T03:54:09;96045.84;;;6.23;100.00
22938;BME280;11634;42.734;23.298;2022-10-22T03:56:34;96043.06;;;6.26;100.00
22938;BME280;11634;42.734;23.298;2022-10-22T03:59:00;96024.53;;;6.20;100.00
22938;BME280;11634;42.734;23.298;2022-10-22T04:01:27;96035.97;;;6.30;100.00
22938;BME280;11634;42.734;23.298;2022-10-22T04:03:54;96022.78;;;6.34;100.00
22938;BME280;11634;42.734;23.298;2022-10-22T04:06:20;96034.81;;;6.49;100.00
22938;BME280;11634;42.734;23.298;2022-10-22T04:08:46;96027.94;;;6.34;100.00
22938;BME280;11634;42.734;23.298;2022-10-22T04:11:13;96029.72;;;6.34;100.00
22938;BME280;11634;42.734;23.298;2022-10-22T04:13:38;96034.81;;;6.49;100.00
22938;BME280;11634;42.734;23.298;2022-10-22T04:16:19;96032.88;;;6.53;100.00
22938;BME280;11634;42.734;23.298;2022-10-22T04:18:46;96045.16;;;6.63;100.00
22938;BME280;11634;42.734;23.298;2022-10-22T04:21:13;96044.06;;;6.81;100.00
22938;BME280;11634;42.734;23.298;2022-10-22T04:23:46;96031.69;;;6.72;100.00
22938;BME280;11634;42.734;23.298;2022-10-22T04:26:12;96048.38;;;6.80;100.00
22938;BME280;11634;42.734;23.298;2022-10-22T04:28:38;96043.06;;;6.83;100.00
22938;BME280;11634;42.734;23.298;2022-10-22T04:31:12;96046.84;;;6.92;100.00
22938;BME280;11634;42.734;23.298;2022-10-22T04:33:38;96041.56;;;6.79;100.00
22938;BME280;11634;42.734;23.298;2022-10-22T04:36:09;96054.56;;;6.64;100.00
22938;BME280;11634;42.734;23.298;2022-10-22T04:38:36;96066.03;;;6.60;100.00
22938;BME280;11634;42.734;23.298;2022-10-22T04:41:09;96057.31;;;6.33;100.00
22938;BME280;11634;42.734;23.298;2022-10-22T04:43:35;96059.06;;;6.33;100.00
22938;BME280;11634;42.734;23.298;2022-10-22T04:46:01;96031.81;;;6.13;100.00
22938;BME280;11634;42.734;23.298;2022-10-22T04:48:26;96061.72;;;6.17;100.00
22938;BME280;11634;42.734;23.298;2022-10-22T04:50:52;96029.34;;;5.97;100.00
22938;BME280;11634;42.734;23.298;2022-10-22T04:53:17;96054.50;;;6.22;100.00
22938;BME280;11634;42.734;23.298;2022-10-22T04:55:43;96053.59;;;6.23;100.00
22938;BME280;11634;42.734;23.298;2022-10-22T04:58:08;96055.38;;;6.37;100.00
22938;BME280;11634;42.734;23.298;2022-10-22T05:00:34;96017.03;;;6.15;100.00
22938;BME280;11634;42.734;23.298;2022-10-22T05:02:59;96060.31;;;6.55;100.00
22938;BME280;11634;42.734;23.298;2022-10-22T05:05:25;96052.25;;;6.46;100.00
22938;BME280;11634;42.734;23.298;2022-10-22T05:07:50;96083.56;;;6.55;100.00
22938;BME280;11634;42.734;23.298;2022-10-22T05:10:16;96075.03;;;6.39;100.00
22938;BME280;11634;42.734;23.298;2022-10-22T05:12:42;96055.19;;;6.40;100.00
22938;BME280;11634;42.734;23.298;2022-10-22T05:15:08;96067.47;;;6.36;100.00
22938;BME280;11634;42.734;23.298;2022-10-22T05:17:36;96085.97;;;6.44;100.00
22938;BME280;11634;42.734;23.298;2022-10-22T05:20:05;96084.28;;;6.43;100.00
22938;BME280;11634;42.734;23.298;2022-10-22T05:22:33;96079.63;;;6.34;100.00
22938;BME280;11634;42.734;23.298;2022-10-22T05:24:59;96066.47;;;6.39;100.00
22938;BME280;11634;42.734;23.298;2022-10-22T05:27:24;96060.94;;;6.45;100.00
22938;BME280;11634;42.734;23.298;2022-10-22T05:29:50;96082.09;;;6.51;100.00
22938;BME280;11634;42.734;23.298;2022-10-22T05:32:15;96090.25;;;6.59;100.00
22938;BME280;11634;42.734;23.298;2022-10-22T05:34:41;96088.56;;;6.58;100.00
22938;BME280;11634;42.734;23.298;2022-10-22T05:37:06;96078.94;;;6.46;100.00
22938;BME280;11634;42.734;23.298;2022-10-22T05:39:32;96073.56;;;6.49;100.00
22938;BME280;11634;42.734;23.298;2022-10-22T05:42:01;96064.38;;;6.59;100.00
22938;BME280;11634;42.734;23.298;2022-10-22T05:44:27;96049.41;;;6.50;100.00
22938;BME280;11634;42.734;23.298;2022-10-22T05:46:53;96102.38;;;6.86;100.00
22938;BME280;11634;42.734;23.298;2022-10-22T05:49:19;96096.44;;;6.84;100.00
22938;BME280;11634;42.734;23.298;2022-10-22T05:51:44;96085.84;;;6.89;100.00
22938;BME280;11634;42.734;23.298;2022-10-22T05:54:16;96085.25;;;6.98;100.00
22938;BME280;11634;42.734;23.298;2022-10-22T05:56:42;96072.88;;;7.03;100.00
22938;BME280;11634;42.734;23.298;2022-10-22T05:59:09;96102.63;;;7.09;100.00
22938;BME280;11634;42.734;23.298;2022-10-22T06:01:35;96084.03;;;7.17;100.00
22938;BME280;11634;42.734;23.298;2022-10-22T06:04:03;96097.53;;;7.50;100.00
22938;BME280;11634;42.734;23.298;2022-10-22T06:06:36;96104.50;;;7.75;100.00
22938;BME280;11634;42.734;23.298;2022-10-22T06:09:10;96106.13;;;7.90;100.00
22938;BME280;11634;42.734;23.298;2022-10-22T06:11:37;96108.09;;;7.99;100.00
22938;BME280;11634;42.734;23.298;2022-10-22T06:14:03;96113.44;;;8.10;100.00
22938;BME280;11634;42.734;23.298;2022-10-22T06:16:30;96109.97;;;8.23;100.00
22938;BME280;11634;42.734;23.298;2022-10-22T06:18:58;96135.59;;;8.54;100.00
22938;BME280;11634;42.734;23.298;2022-10-22T06:21:26;96148.38;;;8.82;100.00
22938;BME280;11634;42.734;23.298;2022-10-22T06:23:55;96123.50;;;8.92;100.00
22938;BME280;11634;42.734;23.298;2022-10-22T06:26:20;96147.19;;;9.25;100.00
22938;BME280;11634;42.734;23.298;2022-10-22T06:28:46;96154.16;;;9.36;100.00
22938;BME280;11634;42.734;23.298;2022-10-22T06:31:11;96150.59;;;9.37;100.00
22938;BME280;11634;42.734;23.298;2022-10-22T06:33:37;96169.19;;;9.56;100.00
22938;BME280;11634;42.734;23.298;2022-10-22T06:36:14;96162.59;;;9.88;100.00
22938;BME280;11634;42.734;23.298;2022-10-22T06:38:40;96162.81;;;9.97;100.00
22938;BME280;11634;42.734;23.298;2022-10-22T06:41:11;96158.72;;;10.29;100.00
22938;BME280;11634;42.734;23.298;2022-10-22T06:43:37;96138.63;;;10.08;100.00
22938;BME280;11634;42.734;23.298;2022-10-22T06:46:05;96163.53;;;10.23;100.00
22938;BME280;11634;42.734;23.298;2022-10-22T06:48:32;96158.50;;;10.32;100.00
22938;BME280;11634;42.734;23.298;2022-10-22T06:51:02;96157.13;;;10.62;100.00
22938;BME280;11634;42.734;23.298;2022-10-22T06:53:31;96150.75;;;10.66;100.00
22938;BME280;11634;42.734;23.298;2022-10-22T06:55:56;96146.97;;;10.47;100.00
22938;BME280;11634;42.734;23.298;2022-10-22T06:58:22;96071.88;;;10.19;100.00
22938;BME280;11634;42.734;23.298;2022-10-22T07:00:47;96140.53;;;10.87;100.00
22938;BME280;11634;42.734;23.298;2022-10-22T07:03:14;96170.28;;;11.06;100.00
22938;BME280;11634;42.734;23.298;2022-10-22T07:05:40;96174.56;;;11.18;100.00
22938;BME280;11634;42.734;23.298;2022-10-22T07:08:06;96154.47;;;11.42;100.00
22938;BME280;11634;42.734;23.298;2022-10-22T07:10:32;96148.84;;;11.58;100.00
22938;BME280;11634;42.734;23.298;2022-10-22T07:12:58;96163.03;;;11.54;100.00
22938;BME280;11634;42.734;23.298;2022-10-22T07:15:24;96162.09;;;11.77;100.00
22938;BME280;11634;42.734;23.298;2022-10-22T07:17:49;96173.22;;;11.79;100.00
22938;BME280;11634;42.734;23.298;2022-10-22T07:20:17;96171.31;;;12.25;100.00
22938;BME280;11634;42.734;23.298;2022-10-22T07:22:44;96172.41;;;12.54;100.00
22938;BME280;11634;42.734;23.298;2022-10-22T07:25:10;96166.84;;;12.78;100.00
22938;BME280;11634;42.734;23.298;2022-10-22T07:27:35;96166.41;;;12.84;100.00
22938;BME280;11634;42.734;23.298;2022-10-22T07:30:01;96154.88;;;12.87;100.00
22938;BME280;11634;42.734;23.298;2022-10-22T07:32:27;96167.69;;;12.90;100.00
22938;BME280;11634;42.734;23.298;2022-10-22T07:34:53;96144.19;;;12.48;100.00
22938;BME280;11634;42.734;23.298;2022-10-22T07:37:18;96152.13;;;12.88;100.00
22938;BME280;11634;42.734;23.298;2022-10-22T07:39:49;96154.38;;;13.93;100.00
22938;BME280;11634;42.734;23.298;2022-10-22T07:42:15;96150.53;;;14.36;100.00
22938;BME280;11634;42.734;23.298;2022-10-22T07:44:40;96136.56;;;14.17;100.00
22938;BME280;11634;42.734;23.298;2022-10-22T07:47:06;96126.69;;;13.90;100.00
22938;BME280;11634;42.734;23.298;2022-10-22T07:49:32;96136.66;;;13.67;100.00
22938;BME280;11634;42.734;23.298;2022-10-22T07:51:57;96131.69;;;13.73;100.00
22938;BME280;11634;42.734;23.298;2022-10-22T07:54:23;96147.72;;;13.79;100.00
22938;BME280;11634;42.734;23.298;2022-10-22T07:56:49;96159.13;;;13.78;100.00
22938;BME280;11634;42.734;23.298;2022-10-22T07:59:14;96155.38;;;14.01;100.00
22938;BME280;11634;42.734;23.298;2022-10-22T08:01:40;96142.88;;;13.75;100.00
22938;BME280;11634;42.734;23.298;2022-10-22T08:04:09;96137.66;;;13.75;100.00
22938;BME280;11634;42.734;23.298;2022-10-22T08:06:35;96129.47;;;13.98;100.00
22938;BME280;11634;42.734;23.298;2022-10-22T08:09:01;96119.22;;;14.16;100.00
22938;BME280;11634;42.734;23.298;2022-10-22T08:11:27;96130.00;;;14.50;100.00
22938;BME280;11634;42.734;23.298;2022-10-22T08:13:52;96118.22;;;14.07;100.00
22938;BME280;11634;42.734;23.298;2022-10-22T08:16:18;96124.66;;;13.64;100.00
22938;BME280;11634;42.734;23.298;2022-10-22T08:18:44;96118.72;;;13.62;100.00
22938;BME280;11634;42.734;23.298;2022-10-22T08:21:13;96120.97;;;13.76;100.00
22938;BME280;11634;42.734;23.298;2022-10-22T08:23:38;96122.22;;;14.11;100.00
22938;BME280;11634;42.734;23.298;2022-10-22T08:26:04;96120.38;;;14.41;100.00
22938;BME280;11634;42.734;23.298;2022-10-22T08:28:30;96094.84;;;14.43;100.00
22938;BME280;11634;42.734;23.298;2022-10-22T08:31:00;96116.78;;;14.42;100.00
22938;BME280;11634;42.734;23.298;2022-10-22T08:33:25;96113.72;;;14.28;100.00
22938;BME280;11634;42.734;23.298;2022-10-22T08:35:51;96118.16;;;14.75;100.00
22938;BME280;11634;42.734;23.298;2022-10-22T08:38:17;96102.03;;;14.88;100.00
22938;BME280;11634;42.734;23.298;2022-10-22T08:40:46;96123.06;;;15.43;100.00
22938;BME280;11634;42.734;23.298;2022-10-22T08:48:56;96114.44;;;15.05;100.00
22938;BME280;11634;42.734;23.298;2022-10-22T08:51:29;96082.56;;;14.81;100.00
22938;BME280;11634;42.734;23.298;2022-10-22T08:56:49;96117.34;;;14.83;100.00
22938;BME280;11634;42.734;23.298;2022-10-22T08:59:26;96117.88;;;14.87;100.00
22938;BME280;11634;42.734;23.298;2022-10-22T09:01:57;96098.84;;;14.94;100.00
22938;BME280;11634;42.734;23.298;2022-10-22T09:04:44;96110.28;;;15.03;100.00
22938;BME280;11634;42.734;23.298;2022-10-22T09:07:13;96088.06;;;15.07;100.00
22938;BME280;11634;42.734;23.298;2022-10-22T09:09:43;96111.00;;;14.95;100.00
22938;BME280;11634;42.734;23.298;2022-10-22T09:12:14;96102.44;;;14.93;100.00
22938;BME280;11634;42.734;23.298;2022-10-22T09:14:40;96099.81;;;14.93;100.00
22938;BME280;11634;42.734;23.298;2022-10-22T09:22:57;96086.72;;;16.38;93.85
22938;BME280;11634;42.734;23.298;2022-10-22T09:25:28;96080.19;;;16.42;94.34
22938;BME280;11634;42.734;23.298;2022-10-22T09:27:55;96069.78;;;16.23;97.70
22938;BME280;11634;42.734;23.298;2022-10-22T09:30:25;96076.69;;;16.34;94.11
22938;BME280;11634;42.734;23.298;2022-10-22T09:33:16;96086.00;;;16.19;94.49
22938;BME280;11634;42.734;23.298;2022-10-22T09:35:54;96083.88;;;16.05;96.27
22938;BME280;11634;42.734;23.298;2022-10-22T09:38:26;96068.59;;;16.18;94.96
22938;BME280;11634;42.734;23.298;2022-10-22T09:40:55;96046.28;;;16.22;95.99
22938;BME280;11634;42.734;23.298;2022-10-22T09:43:21;96055.56;;;16.26;93.71
22938;BME280;11634;42.734;23.298;2022-10-22T09:45:54;96059.63;;;16.38;93.71
22938;BME280;11634;42.734;23.298;2022-10-22T09:48:22;96061.13;;;15.96;95.18
22938;BME280;11634;42.734;23.298;2022-10-22T09:51:05;96060.34;;;15.86;98.10
22938;BME280;11634;42.734;23.298;2022-10-22T09:53:37;96066.88;;;16.26;94.13
22938;BME280;11634;42.734;23.298;2022-10-22T09:56:12;96070.59;;;16.33;91.49
22938;BME280;11634;42.734;23.298;2022-10-22T09:58:44;96054.69;;;16.35;91.59
22938;BME280;11634;42.734;23.298;2022-10-22T10:01:17;96040.84;;;16.85;90.10
22938;BME280;11634;42.734;23.298;2022-10-22T10:03:42;96017.59;;;16.98;84.58
22938;BME280;11634;42.734;23.298;2022-10-22T10:06:08;95997.44;;;16.81;85.26
22938;BME280;11634;42.734;23.298;2022-10-22T10:08:34;96014.31;;;16.96;85.81
22938;BME280;11634;42.734;23.298;2022-10-22T10:11:14;96033.28;;;17.07;84.65
22938;BME280;11634;42.734;23.298;2022-10-22T10:13:44;96033.69;;;16.77;88.89
22938;BME280;11634;42.734;23.298;2022-10-22T10:22:18;96015.59;;;16.74;89.65
22938;BME280;11634;42.734;23.298;2022-10-22T10:27:39;96011.91;;;17.10;85.81
22938;BME280;11634;42.734;23.298;2022-10-22T10:30:20;96018.31;;;17.07;85.93
22938;BME280;11634;42.734;23.298;2022-10-22T10:33:15;96004.91;;;17.18;88.51
22938;BME280;11634;42.734;23.298;2022-10-22T10:35:46;96002.94;;;17.20;87.19
22938;BME280;11634;42.734;23.298;2022-10-22T10:40:58;95994.84;;;16.89;87.89
22938;BME280;11634;42.734;23.298;2022-10-22T10:46:47;95984.44;;;17.30;83.58
22938;BME280;11634;42.734;23.298;2022-10-22T10:49:25;95982.63;;;17.30;83.01
22938;BME280;11634;42.734;23.298;2022-10-22T10:54:33;95970.16;;;17.32;81.58
22938;BME280;11634;42.734;23.298;2022-10-22T11:00:13;95956.16;;;17.32;84.47
22938;BME280;11634;42.734;23.298;2022-10-22T11:08:24;95938.81;;;17.54;81.12
22938;BME280;11634;42.734;23.298;2022-10-22T11:11:04;95930.97;;;17.70;80.86
22938;BME280;11634;42.734;23.298;2022-10-22T11:18:37;95851.41;;;17.43;79.40
22938;BME280;11634;42.734;23.298;2022-10-22T11:24:08;95898.81;;;18.16;76.18
22938;BME280;11634;42.734;23.298;2022-10-22T11:26:49;95899.47;;;18.26;74.14
22938;BME280;11634;42.734;23.298;2022-10-22T11:29:23;95903.69;;;18.03;77.56
22938;BME280;11634;42.734;23.298;2022-10-22T11:31:51;95900.25;;;18.10;75.66
22938;BME280;11634;42.734;23.298;2022-10-22T11:34:23;95860.22;;;18.07;73.95
22938;BME280;11634;42.734;23.298;2022-10-22T11:36:52;95847.19;;;17.82;75.09
22938;BME280;11634;42.734;23.298;2022-10-22T11:39:56;95883.81;;;18.32;73.29
22938;BME280;11634;42.734;23.298;2022-10-22T11:42:36;95846.22;;;17.99;73.74
22938;BME280;11634;42.734;23.298;2022-10-22T11:45:04;95882.28;;;18.14;74.24
22938;BME280;11634;42.734;23.298;2022-10-22T12:00:57;95868.56;;;18.90;68.24
22938;BME280;11634;42.734;23.298;2022-10-22T12:06:26;95848.06;;;19.08;65.60
22938;BME280;11634;42.734;23.298;2022-10-22T12:11:27;95853.63;;;19.21;64.38
22938;BME280;11634;42.734;23.298;2022-10-22T12:16:54;95825.78;;;19.02;65.28
22938;BME280;11634;42.734;23.298;2022-10-22T12:21:55;95839.53;;;19.36;64.41
22938;BME280;11634;42.734;23.298;2022-10-22T12:24:23;95857.59;;;19.24;64.62
22938;BME280;11634;42.734;23.298;2022-10-22T12:26:50;95844.78;;;19.44;64.23
22938;BME280;11634;42.734;23.298;2022-10-22T12:29:18;95842.16;;;19.36;63.55
22938;BME280;11634;42.734;23.298;2022-10-22T12:31:45;95817.28;;;19.30;63.98
22938;BME280;11634;42.734;23.298;2022-10-22T12:34:21;95836.22;;;19.42;62.80
22938;BME280;11634;42.734;23.298;2022-10-22T12:36:49;95823.25;;;19.55;62.84
22938;BME280;11634;42.734;23.298;2022-10-22T12:39:18;95829.50;;;19.84;61.78
22938;BME280;11634;42.734;23.298;2022-10-22T12:41:44;95792.91;;;19.73;61.44
22938;BME280;11634;42.734;23.298;2022-10-22T12:44:15;95818.75;;;19.85;61.28
22938;BME280;11634;42.734;23.298;2022-10-22T12:46:43;95808.16;;;19.93;60.53
22938;BME280;11634;42.734;23.298;2022-10-22T12:49:20;95783.34;;;19.94;60.93
22938;BME280;11634;42.734;23.298;2022-10-22T12:51:47;95772.53;;;20.04;59.72
22938;BME280;11634;42.734;23.298;2022-10-22T12:54:30;95806.41;;;20.23;58.98
22938;BME280;11634;42.734;23.298;2022-10-22T12:56:58;95782.34;;;20.18;58.35
22938;BME280;11634;42.734;23.298;2022-10-22T12:59:33;95803.19;;;20.35;58.13
22938;BME280;11634;42.734;23.298;2022-10-22T13:02:00;95793.34;;;20.07;58.75
22938;BME280;11634;42.734;23.298;2022-10-22T13:04:36;95796.75;;;20.15;58.67
22938;BME280;11634;42.734;23.298;2022-10-22T13:07:15;95797.97;;;20.27;58.85
22938;BME280;11634;42.734;23.298;2022-10-22T13:12:27;95800.59;;;20.41;57.76
22938;BME280;11634;42.734;23.298;2022-10-22T13:14:53;95771.06;;;20.38;56.70
22938;BME280;11634;42.734;23.298;2022-10-22T13:17:27;95790.97;;;20.63;56.48
22938;BME280;11634;42.734;23.298;2022-10-22T13:20:03;95780.06;;;20.80;56.29
22938;BME280;11634;42.734;23.298;2022-10-22T13:22:34;95778.22;;;20.95;55.93
22938;BME280;11634;42.734;23.298;2022-10-22T13:27:46;95734.06;;;20.81;55.70
22938;BME280;11634;42.734;23.298;2022-10-22T13:30:30;95780.75;;;21.17;55.19
22938;BME280;11634;42.734;23.298;2022-10-22T13:32:59;95752.94;;;21.07;54.68
22938;BME280;11634;42.734;23.298;2022-10-22T13:35:29;95764.13;;;21.09;54.26
22938;BME280;11634;42.734;23.298;2022-10-22T13:37:56;95770.38;;;21.01;54.74
22938;BME280;11634;42.734;23.298;2022-10-22T13:40:22;95742.47;;;20.70;54.39
22938;BME280;11634;42.734;23.298;2022-10-22T13:42:47;95772.91;;;20.66;55.72
22938;BME280;11634;42.734;23.298;2022-10-22T13:45:13;95778.81;;;20.39;56.68
22938;BME280;11634;42.734;23.298;2022-10-22T13:47:40;95778.97;;;20.24;58.10
22938;BME280;11634;42.734;23.298;2022-10-22T13:50:13;95788.50;;;20.10;59.09
22938;BME280;11634;42.734;23.298;2022-10-22T13:52:43;95774.91;;;19.99;59.48
22938;BME280;11634;42.734;23.298;2022-10-22T13:55:20;95774.63;;;19.86;60.28
22938;BME280;11634;42.734;23.298;2022-10-22T13:58:10;95775.41;;;19.72;60.58
22938;BME280;11634;42.734;23.298;2022-10-22T14:00:41;95758.47;;;19.44;61.66
22938;BME280;11634;42.734;23.298;2022-10-22T14:03:14;95773.94;;;19.47;63.13
22938;BME280;11634;42.734;23.298;2022-10-22T14:05:40;95768.44;;;19.26;63.06
22938;BME280;11634;42.734;23.298;2022-10-22T14:08:20;95746.44;;;19.12;63.48
22938;BME280;11634;42.734;23.298;2022-10-22T14:10:58;95668.00;;;18.67;63.55
22938;BME280;11634;42.734;23.298;2022-10-22T14:13:23;95788.19;;;19.38;63.87
22938;BME280;11634;42.734;23.298;2022-10-22T14:15:50;95715.28;;;19.07;64.59
22938;BME280;11634;42.734;23.298;2022-10-22T14:18:22;95738.78;;;19.24;65.48
22938;BME280;11634;42.734;23.298;2022-10-22T14:20:58;95723.88;;;19.31;65.32
22938;BME280;11634;42.734;23.298;2022-10-22T14:23:30;95762.56;;;19.69;65.04
22938;BME280;11634;42.734;23.298;2022-10-22T14:25:57;95753.66;;;19.70;64.39
22938;BME280;11634;42.734;23.298;2022-10-22T14:28:23;95753.72;;;19.62;63.60
22938;BME280;11634;42.734;23.298;2022-10-22T14:30:50;95758.69;;;19.79;63.51
22938;BME280;11634;42.734;23.298;2022-10-22T14:33:22;95756.78;;;19.96;62.38
22938;BME280;11634;42.734;23.298;2022-10-22T14:35:48;95748.94;;;20.02;62.28
22938;BME280;11634;42.734;23.298;2022-10-22T14:38:14;95754.38;;;20.01;61.89
22938;BME280;11634;42.734;23.298;2022-10-22T14:40:40;95744.84;;;20.14;62.22